Time;durP1;ratioP1;P1;durP2;ratioP2;P2;SDS_P1;SDS_P2;PMS_P1;PMS_P2;Temp;Humidity;BMP_temperature;BMP_pressure;BME280_temperature;BME280_humidity;BME280_pressure;Samples;Min_cycle;Max_cycle;Signal;HPM_P1;HPM_P2
2022/12/15 00:40:14;;;;;;;30.55;21.23;;;19.80;44.50;;;;;;5026560;28;20396;-76
2022/12/15 00:42:39;;;;;;;30.17;21.60;;;19.80;45.00;;;;;;5027315;28;20034;-77
2022/12/15 00:45:06;;;;;;;27.15;20.67;;;19.80;44.80;;;;;;5027583;28;20112;-77
2022/12/15 00:47:32;;;;;;;29.50;21.42;;;19.80;44.80;;;;;;5027698;28;20040;-77
2022/12/15 01:20:33;;;;;;;28.20;19.77;;;19.60;45.30;;;;;;5031473;28;20033;-76
2022/12/15 01:23:04;;;;;;;29.35;20.10;;;19.70;45.50;;;;;;5029713;28;20037;-78
2022/12/15 01:25:30;;;;;;;27.85;19.85;;;19.60;45.30;;;;;;5011622;28;20029;-77
2022/12/15 01:27:56;;;;;;;25.67;19.20;;;19.60;45.50;;;;;;5012363;28;20394;-77
2022/12/15 01:30:24;;;;;;;26.00;18.15;;;19.60;45.50;;;;;;5030313;28;20432;-78
2022/12/15 01:32:51;;;;;;;24.95;18.10;;;19.60;45.40;;;;;;5028820;28;20029;-77
2022/12/15 01:35:17;;;;;;;26.60;18.77;;;19.60;45.50;;;;;;5029486;28;20044;-77
2022/12/15 01:37:43;;;;;;;25.15;18.45;;;19.60;45.60;;;;;;5029839;28;20059;-76
2022/12/15 01:42:58;;;;;;;75.65;57.13;;;19.60;44.80;;;;;;5031050;28;20079;-79
2022/12/15 01:45:23;;;;;;;66.05;47.95;;;18.80;32.50;;;;;;5031034;28;20497;-86
2022/12/15 01:48:11;;;;;;;49.35;37.97;;;18.60;37.50;;;;;;5030066;28;20030;-74
2022/12/15 01:50:45;;;;;;;49.55;37.92;;;18.70;39.50;;;;;;5026594;28;20042;-76
2022/12/15 01:53:13;;;;;;;50.08;37.70;;;18.80;41.00;;;;;;5030541;28;20040;-78
2022/12/15 01:55:41;;;;;;;55.80;36.95;;;18.90;41.20;;;;;;5029725;28;20524;-78
2022/12/15 01:58:10;;;;;;;55.88;38.55;;;19.00;41.30;;;;;;5012980;28;20587;-78
2022/12/15 02:00:36;;;;;;;60.72;37.05;;;19.00;40.60;;;;;;5029849;28;20393;-77
2022/12/15 02:03:04;;;;;;;61.00;37.42;;;19.10;40.80;;;;;;5030658;28;20029;-77
2022/12/15 02:05:30;;;;;;;58.22;36.75;;;19.10;40.70;;;;;;5030803;28;20029;-77
2022/12/15 02:07:58;;;;;;;56.35;37.70;;;19.10;40.80;;;;;;5031312;28;20049;-77
2022/12/15 02:10:29;;;;;;;46.80;34.55;;;19.20;41.30;;;;;;5030922;28;20488;-77
2022/12/15 02:13:16;;;;;;;49.88;35.28;;;19.20;43.40;;;;;;5030925;28;20033;-77
2022/12/15 02:16:30;;;;;;;52.53;36.47;;;19.20;45.60;;;;;;5015520;28;20036;-77
2022/12/15 02:19:35;;;;;;;49.13;34.80;;;19.20;45.30;;;;;;5008351;28;20033;-77
2022/12/15 02:22:13;;;;;;;72.72;38.72;;;19.20;45.80;;;;;;5017087;28;20061;-77
2022/12/15 02:24:58;;;;;;;66.97;36.78;;;19.20;46.70;;;;;;5034256;28;20040;-77
2022/12/15 02:27:48;;;;;;;68.88;38.17;;;19.20;47.10;;;;;;5032930;28;20464;-77
2022/12/15 02:30:19;;;;;;;67.85;37.70;;;19.30;47.10;;;;;;5034293;28;20109;-77
2022/12/15 02:32:53;;;;;;;70.25;37.55;;;19.30;47.70;;;;;;5034755;28;20029;-77
2022/12/15 02:35:26;;;;;;;71.05;37.42;;;19.30;48.20;;;;;;5033891;28;20033;-77
2022/12/15 02:37:52;;;;;;;64.38;35.08;;;19.30;48.50;;;;;;5033168;28;20040;-77
2022/12/15 02:40:18;;;;;;;60.03;34.88;;;19.30;48.80;;;;;;5032988;28;20026;-77
2022/12/15 02:42:50;;;;;;;54.72;33.80;;;19.30;48.80;;;;;;5034037;28;20122;-76
2022/12/15 02:45:22;;;;;;;60.38;34.38;;;19.30;49.40;;;;;;5033719;28;20388;-76
2022/12/15 02:48:01;;;;;;;63.75;34.55;;;19.30;49.50;;;;;;5034279;28;20024;-77
2022/12/15 02:50:42;;;;;;;58.55;34.33;;;19.30;49.60;;;;;;5034041;28;20029;-77
2022/12/15 02:53:46;;;;;;;58.28;32.60;;;19.30;49.60;;;;;;5032443;28;20025;-76
2022/12/15 02:56:41;;;;;;;58.00;33.38;;;19.30;50.20;;;;;;5033844;28;20075;-77
2022/12/15 02:59:29;;;;;;;52.92;31.23;;;19.30;50.00;;;;;;5033909;28;20038;-76
2022/12/15 03:02:07;;;;;;;50.40;32.00;;;19.30;49.60;;;;;;5032599;28;20060;-77
2022/12/15 03:04:33;;;;;;;53.90;31.70;;;19.30;49.50;;;;;;5033467;28;20029;-76
2022/12/15 03:07:04;;;;;;;44.13;30.02;;;19.20;51.00;;;;;;5033660;28;20076;-76
2022/12/15 03:09:30;;;;;;;43.88;27.17;;;19.30;50.10;;;;;;5033668;28;20362;-76
2022/12/15 03:11:56;;;;;;;43.40;27.40;;;19.20;50.10;;;;;;5032463;28;20568;-75
2022/12/15 03:14:24;;;;;;;45.90;29.65;;;19.20;50.00;;;;;;5032287;28;20129;-75
2022/12/15 03:16:51;;;;;;;47.45;28.77;;;19.20;50.60;;;;;;5033520;28;20033;-75
2022/12/15 03:19:17;;;;;;;47.35;30.45;;;19.20;50.90;;;;;;5032478;28;20044;-75
2022/12/15 03:21:42;;;;;;;46.35;28.48;;;19.30;51.10;;;;;;5033280;28;20029;-75
2022/12/15 03:24:08;;;;;;;43.10;27.63;;;19.20;51.20;;;;;;5033080;28;20033;-75
2022/12/15 03:26:34;;;;;;;50.00;29.23;;;19.20;51.10;;;;;;5032534;28;20030;-75
2022/12/15 03:29:00;;;;;;;46.75;28.42;;;19.20;51.70;;;;;;5033553;28;20030;-75
2022/12/15 03:31:25;;;;;;;49.38;28.45;;;19.20;51.90;;;;;;5033234;28;20485;-75
2022/12/15 03:33:51;;;;;;;46.63;28.67;;;19.30;52.10;;;;;;5031809;28;20485;-75
2022/12/15 03:36:17;;;;;;;47.88;28.00;;;19.20;52.20;;;;;;5033231;28;20540;-74
2022/12/15 03:38:43;;;;;;;43.40;26.90;;;19.20;52.30;;;;;;5033134;28;20033;-75
2022/12/15 03:41:08;;;;;;;43.90;26.73;;;19.20;52.40;;;;;;5032907;28;20038;-75
2022/12/15 03:43:34;;;;;;;39.70;25.25;;;19.20;52.40;;;;;;5031434;28;20025;-75
2022/12/15 03:46:00;;;;;;;37.55;25.80;;;19.20;52.30;;;;;;5032887;28;20033;-75
2022/12/15 03:48:26;;;;;;;40.92;25.38;;;19.20;52.50;;;;;;5032892;28;20117;-75
2022/12/15 03:50:52;;;;;;;36.45;24.65;;;19.20;52.30;;;;;;5015328;28;20133;-75
2022/12/15 03:53:18;;;;;;;42.78;25.63;;;19.20;52.70;;;;;;5032525;28;20028;-75
2022/12/15 03:55:44;;;;;;;37.45;24.70;;;19.20;52.30;;;;;;5032781;28;20038;-75
2022/12/15 03:58:09;;;;;;;37.72;24.33;;;19.20;52.20;;;;;;5031885;28;20032;-75
2022/12/15 04:00:35;;;;;;;36.10;24.45;;;19.20;52.30;;;;;;5032753;28;20437;-75
2022/12/15 04:03:01;;;;;;;37.63;24.05;;;19.20;52.50;;;;;;5032351;28;20071;-75
2022/12/15 04:05:30;;;;;;;39.28;24.80;;;19.10;52.20;;;;;;5031280;28;20021;-75
2022/12/15 04:07:57;;;;;;;37.78;24.98;;;19.20;52.30;;;;;;5032553;28;20030;-75
2022/12/15 04:10:24;;;;;;;39.47;24.50;;;19.20;52.10;;;;;;5032466;28;20061;-75
2022/12/15 04:12:57;;;;;;;37.63;23.05;;;19.10;52.00;;;;;;5031272;28;20029;-76
2022/12/15 04:15:23;;;;;;;37.63;23.45;;;19.10;51.90;;;;;;5031089;28;20029;-75
2022/12/15 04:17:49;;;;;;;37.40;24.80;;;19.10;52.10;;;;;;5032416;28;20029;-75
2022/12/15 04:20:14;;;;;;;32.85;22.60;;;19.10;53.30;;;;;;5032535;28;20684;-75
2022/12/15 04:22:43;;;;;;;35.50;23.52;;;19.10;53.60;;;;;;5032102;28;20390;-75
2022/12/15 05:33:58;;;;;;;29.33;19.25;;;18.80;52.80;;;;;;5030640;28;20033;-76
2022/12/15 05:36:24;;;;;;;30.08;18.98;;;18.80;52.60;;;;;;5030183;28;20029;-76
2022/12/15 05:38:51;;;;;;;29.65;19.63;;;18.80;52.70;;;;;;5031465;28;20539;-75
2022/12/15 05:41:17;;;;;;;32.00;19.33;;;18.80;52.70;;;;;;5031118;28;20034;-76
2022/12/15 05:43:43;;;;;;;28.80;19.45;;;18.80;52.40;;;;;;5030965;28;20021;-76
2022/12/15 05:46:09;;;;;;;27.33;18.42;;;18.80;52.90;;;;;;5013494;28;20072;-76
2022/12/15 05:48:35;;;;;;;27.45;19.05;;;18.80;53.00;;;;;;5031166;28;20029;-75
2022/12/15 05:51:07;;;;;;;27.65;18.90;;;18.80;52.90;;;;;;5032651;28;20398;-76
2022/12/15 05:53:34;;;;;;;28.60;18.48;;;18.80;52.80;;;;;;5034809;28;20026;-75
2022/12/15 05:56:04;;;;;;;28.25;19.13;;;18.80;52.10;;;;;;5033821;28;20405;-76
2022/12/15 05:58:30;;;;;;;29.65;19.23;;;18.80;51.80;;;;;;5035085;28;20469;-76
2022/12/15 06:01:16;;;;;;;28.52;18.90;;;18.80;51.90;;;;;;5034932;28;20053;-76
2022/12/15 06:03:43;;;;;;;28.63;18.90;;;18.80;52.00;;;;;;5033613;28;20036;-76
2022/12/15 06:06:10;;;;;;;31.70;18.38;;;18.80;52.00;;;;;;5034867;28;20083;-76
2022/12/15 06:08:39;;;;;;;29.52;19.30;;;18.80;52.00;;;;;;5034823;28;20028;-77
2022/12/15 06:11:05;;;;;;;26.38;17.63;;;18.80;52.40;;;;;;5034674;28;20102;-77
2022/12/15 06:13:33;;;;;;;26.70;18.23;;;18.80;52.60;;;;;;5033269;28;20017;-76
2022/12/15 06:16:01;;;;;;;28.00;17.73;;;18.80;52.90;;;;;;5034462;28;20018;-76
2022/12/15 06:18:33;;;;;;;26.23;18.13;;;18.80;53.20;;;;;;5034617;28;20033;-77
2022/12/15 06:21:04;;;;;;;27.77;17.75;;;18.80;53.40;;;;;;5034750;28;20044;-77
2022/12/15 06:23:33;;;;;;;26.95;17.88;;;18.80;53.30;;;;;;5034374;28;20025;-77
2022/12/15 06:26:07;;;;;;;27.15;18.08;;;18.80;53.70;;;;;;5034457;28;20443;-77
2022/12/15 06:28:33;;;;;;;28.73;17.40;;;18.70;54.20;;;;;;5034660;28;20025;-77
2022/12/15 06:31:02;;;;;;;31.02;17.67;;;18.70;54.20;;;;;;5034628;28;20028;-78
2022/12/15 06:33:29;;;;;;;26.80;17.90;;;18.70;54.60;;;;;;5033117;28;20025;-76
2022/12/15 06:35:55;;;;;;;27.40;17.88;;;18.70;54.50;;;;;;5035014;28;20152;-76
2022/12/15 06:38:21;;;;;;;27.83;16.67;;;18.70;54.50;;;;;;5035226;28;20025;-77
2022/12/15 06:40:58;;;;;;;24.00;16.50;;;18.70;55.10;;;;;;5033894;28;20029;-77
2022/12/15 06:43:25;;;;;;;28.25;16.10;;;18.70;55.10;;;;;;5034269;28;20056;-77
2022/12/15 06:45:50;;;;;;;24.95;16.60;;;18.70;55.00;;;;;;5034384;28;20129;-77
2022/12/15 06:48:17;;;;;;;26.73;17.55;;;18.70;55.30;;;;;;5034178;28;20101;-78
2022/12/15 06:50:46;;;;;;;27.58;17.15;;;18.70;55.10;;;;;;5033983;28;20029;-77
2022/12/15 06:53:17;;;;;;;27.55;16.52;;;18.70;55.90;;;;;;5033673;28;20041;-76
2022/12/15 06:55:43;;;;;;;25.20;16.95;;;18.70;55.70;;;;;;5032873;28;20485;-77
2022/12/15 06:58:13;;;;;;;25.00;16.48;;;18.70;56.10;;;;;;5033835;28;20397;-76
2022/12/15 07:00:43;;;;;;;37.83;22.80;;;18.70;55.90;;;;;;5033790;28;20022;-79
2022/12/15 07:03:12;;;;;;;;;;;16.20;30.30;;;;;;5033070;28;20029;-83
2022/12/15 07:05:38;;;;;;;33.10;21.88;;;16.00;32.10;;;;;;5033646;28;19952;-78
2022/12/15 07:08:04;;;;;;;34.28;21.00;;;16.30;36.70;;;;;;5033955;28;20072;-79
2022/12/15 07:10:29;;;;;;;30.17;19.45;;;16.70;39.10;;;;;;5033867;28;20025;-78
2022/12/15 07:12:56;;;;;;;32.22;17.75;;;17.10;39.80;;;;;;5033489;28;20430;-78
2022/12/15 07:15:22;;;;;;;29.83;20.13;;;17.50;41.20;;;;;;5033465;28;20029;-77
2022/12/15 07:17:48;;;;;;;40.22;20.27;;;17.70;43.10;;;;;;5032168;28;20481;-76
2022/12/15 07:20:14;;;;;;;41.85;20.33;;;18.00;44.40;;;;;;5033597;28;20087;-75
2022/12/15 07:22:40;;;;;;;63.83;20.63;;;18.20;46.40;;;;;;5033358;28;20030;-77
2022/12/15 07:25:06;;;;;;;40.42;19.35;;;18.40;46.40;;;;;;5033093;28;20029;-76
2022/12/15 07:27:32;;;;;;;50.22;17.85;;;18.50;47.10;;;;;;5033559;28;20044;-76
2022/12/15 07:29:58;;;;;;;36.25;16.88;;;18.70;47.10;;;;;;5033358;28;20021;-75
2022/12/15 07:32:23;;;;;;;47.83;18.70;;;18.80;46.80;;;;;;5033227;28;20044;-77
2022/12/15 07:34:49;;;;;;;37.88;17.20;;;18.90;46.70;;;;;;5031879;28;20033;-76
2022/12/15 07:37:15;;;;;;;33.50;16.40;;;18.90;47.00;;;;;;5031861;28;20036;-75
2022/12/15 07:39:42;;;;;;;44.28;16.80;;;18.90;48.00;;;;;;5033087;28;20036;-75
2022/12/15 07:42:07;;;;;;;51.70;15.95;;;19.00;49.10;;;;;;5031663;28;20507;-75
2022/12/15 07:44:33;;;;;;;37.53;15.13;;;19.00;47.90;;;;;;5031440;28;20029;-75
2022/12/15 07:46:59;;;;;;;44.47;18.77;;;19.00;47.50;;;;;;5031733;28;20111;-75
2022/12/15 07:49:24;;;;;;;38.17;17.20;;;18.90;47.70;;;;;;5033230;28;20447;-75
2022/12/15 17:36:33;;;;;;;26.83;13.25;;;18.40;49.40;;;;;;5093968;28;20364;-71
2022/12/15 17:39:00;;;;;;;25.23;13.38;;;18.40;49.60;;;;;;5084385;27;20142;-72
2022/12/15 17:41:27;;;;;;;34.75;12.40;;;18.60;50.80;;;;;;5063531;28;20526;-72
2022/12/15 17:43:53;;;;;;;22.02;12.40;;;18.70;52.80;;;;;;5074133;22;20100;-77
2022/12/15 17:46:19;;;;;;;20.38;12.07;;;18.80;52.70;;;;;;5025513;28;20042;-76
2022/12/15 17:48:45;;;;;;;25.17;13.02;;;18.90;52.50;;;;;;5028462;28;20052;-81
2022/12/15 17:51:17;;;;;;;33.97;13.48;;;18.90;52.60;;;;;;5028025;28;20037;-80
2022/12/15 17:53:44;;;;;;;27.83;13.38;;;19.00;52.90;;;;;;5029906;28;20104;-76
2022/12/15 17:56:12;;;;;;;36.80;12.43;;;19.00;52.10;;;;;;5045822;28;20580;-80
2022/12/15 17:58:39;;;;;;;29.45;12.95;;;19.10;52.30;;;;;;5019770;28;20627;-75
2022/12/15 18:01:04;;;;;;;26.60;13.05;;;19.10;52.00;;;;;;5045855;28;20527;-80
2022/12/15 18:03:31;;;;;;;23.88;12.75;;;19.10;51.90;;;;;;5048526;28;20033;-88
2022/12/15 18:05:57;;;;;;;30.20;12.95;;;19.10;52.10;;;;;;5046633;28;20033;-80
2022/12/15 18:08:27;;;;;;;26.20;13.65;;;19.10;51.60;;;;;;5047288;28;20555;-81
2022/12/15 18:10:56;;;;;;;28.77;13.50;;;19.10;51.30;;;;;;5046259;28;20030;-76
2022/12/15 18:13:25;;;;;;;28.65;13.18;;;19.10;51.30;;;;;;5046817;28;20043;-75
2022/12/15 18:15:52;;;;;;;21.27;12.98;;;19.10;51.30;;;;;;5025036;28;20057;-80
2022/12/15 18:18:22;;;;;;;26.67;12.40;;;19.20;51.70;;;;;;5010556;28;20025;-77
2022/12/15 18:20:50;;;;;;;30.23;13.45;;;19.20;51.50;;;;;;5046084;28;20037;-81
2022/12/15 18:23:22;;;;;;;25.80;12.60;;;19.20;51.50;;;;;;5044863;28;20022;-88
2022/12/15 18:25:49;;;;;;;26.15;12.45;;;19.30;51.50;;;;;;5045958;28;20473;-86
2022/12/15 18:28:30;;;;;;;22.63;12.52;;;19.20;51.60;;;;;;5044606;28;20033;-79
2022/12/15 18:31:16;;;;;;;25.00;12.75;;;19.20;51.60;;;;;;5043928;28;20026;-86
2022/12/15 18:33:43;;;;;;;20.00;12.75;;;19.20;51.60;;;;;;5044549;28;20044;-81
2022/12/15 18:36:09;;;;;;;18.75;12.30;;;19.30;51.70;;;;;;5044638;28;20033;-81
2022/12/15 18:38:35;;;;;;;24.70;13.40;;;19.30;51.60;;;;;;5043900;28;20033;-80
2022/12/15 18:41:03;;;;;;;22.10;12.75;;;19.30;51.60;;;;;;5044011;28;20052;-81
2022/12/15 18:43:31;;;;;;;23.40;12.18;;;19.30;51.50;;;;;;5026414;28;20104;-82
2022/12/15 18:45:57;;;;;;;23.67;12.77;;;19.30;51.60;;;;;;5059432;28;20396;-82
2022/12/15 18:48:29;;;;;;;21.80;11.98;;;19.30;51.60;;;;;;5031284;28;20075;-83
2022/12/15 18:50:56;;;;;;;23.15;11.90;;;19.30;51.60;;;;;;5033247;28;20029;-82
2022/12/15 18:53:28;;;;;;;21.77;12.00;;;19.30;51.60;;;;;;5029913;28;20041;-79
2022/12/15 18:55:54;;;;;;;24.15;12.40;;;19.30;51.60;;;;;;5031801;28;20045;-80
2022/12/15 18:58:26;;;;;;;19.52;12.38;;;19.30;51.60;;;;;;5031000;28;20426;-78
2022/12/15 19:00:54;;;;;;;21.00;11.60;;;19.20;51.40;;;;;;5016530;28;20501;-81
2022/12/15 19:03:21;;;;;;;20.17;11.55;;;19.20;52.30;;;;;;5030259;28;20014;-83
2022/12/15 19:05:49;;;;;;;21.98;11.93;;;19.20;51.40;;;;;;5032187;28;20439;-78
2022/12/15 19:08:23;;;;;;;25.08;12.35;;;19.20;51.00;;;;;;5032124;28;20370;-79
2022/12/15 19:10:54;;;;;;;25.58;12.02;;;19.20;51.00;;;;;;5016477;28;20037;-80
2022/12/15 19:13:23;;;;;;;25.08;12.80;;;19.10;50.90;;;;;;5022813;28;20083;-80
2022/12/15 19:15:49;;;;;;;25.13;12.40;;;19.10;50.80;;;;;;5016199;28;20044;-79
2022/12/15 19:24:15;;;;;;;19.73;12.00;;;19.10;50.50;;;;;;5010210;28;20034;-79
2022/12/15 19:26:41;;;;;;;18.63;11.90;;;19.10;50.40;;;;;;5016102;28;20100;-80
2022/12/15 19:29:16;;;;;;;18.38;12.20;;;19.10;50.50;;;;;;5013306;28;20441;-80
2022/12/15 19:31:42;;;;;;;20.08;12.10;;;19.10;50.40;;;;;;5015860;28;20051;-79
2022/12/15 19:34:09;;;;;;;22.02;11.77;;;19.00;50.40;;;;;;5032489;28;20361;-79
2022/12/15 19:36:35;;;;;;;19.05;11.20;;;19.00;50.30;;;;;;5033510;28;20025;-79
2022/12/15 19:39:01;;;;;;;19.42;12.52;;;19.00;50.30;;;;;;5000737;28;20092;-79
2022/12/15 19:41:27;;;;;;;20.35;12.13;;;19.00;50.20;;;;;;5032324;28;20028;-79
2022/12/15 19:43:52;;;;;;;21.00;11.68;;;19.00;50.20;;;;;;5031915;28;20038;-79
2022/12/15 19:46:20;;;;;;;18.50;11.98;;;19.00;50.20;;;;;;5030857;28;20030;-79
2022/12/15 19:48:47;;;;;;;20.73;12.15;;;19.00;50.20;;;;;;5015594;28;20423;-79
2022/12/15 19:51:19;;;;;;;18.27;11.25;;;19.00;50.10;;;;;;5014875;28;20129;-80
2022/12/15 19:53:46;;;;;;;19.35;11.95;;;19.00;50.10;;;;;;5032061;28;20049;-80
2022/12/15 19:56:15;;;;;;;22.88;12.10;;;19.00;50.10;;;;;;5029678;28;20041;-80
2022/12/15 19:58:41;;;;;;;21.23;11.82;;;19.00;50.10;;;;;;5031720;28;20026;-80
2022/12/15 20:01:11;;;;;;;19.33;11.18;;;19.00;50.00;;;;;;5032075;28;20416;-80
2022/12/15 20:03:37;;;;;;;18.63;11.13;;;18.90;49.90;;;;;;5032996;28;20038;-80
2022/12/15 20:06:10;;;;;;;26.27;11.68;;;19.00;50.00;;;;;;5030092;28;20077;-80
2022/12/15 20:08:40;;;;;;;17.48;10.38;;;19.00;50.00;;;;;;5009188;28;20397;-81
2022/12/15 20:11:16;;;;;;;15.90;10.48;;;19.00;50.00;;;;;;5015151;28;20068;-80
2022/12/15 20:13:42;;;;;;;19.17;11.05;;;18.90;49.80;;;;;;5030784;28;20045;-80
2022/12/15 20:16:09;;;;;;;19.98;11.13;;;19.00;50.50;;;;;;5031468;28;20497;-80
2022/12/15 20:18:35;;;;;;;19.83;11.30;;;19.00;49.90;;;;;;5030756;28;20041;-81
2022/12/15 20:21:01;;;;;;;18.65;12.23;;;19.00;49.90;;;;;;5031641;28;20033;-81
2022/12/15 20:23:30;;;;;;;20.00;12.25;;;19.00;49.80;;;;;;5026652;28;20033;-81
2022/12/15 20:25:56;;;;;;;20.42;12.05;;;19.00;49.80;;;;;;5018463;28;20057;-80
2022/12/15 20:28:24;;;;;;;17.58;11.52;;;18.90;49.70;;;;;;5029409;28;20062;-81
2022/12/15 20:30:51;;;;;;;19.40;10.80;;;18.90;49.70;;;;;;5031343;28;20447;-82
2022/12/15 20:33:17;;;;;;;19.55;11.70;;;18.90;49.70;;;;;;5014410;28;20397;-81
2022/12/15 20:35:45;;;;;;;17.30;10.77;;;19.00;49.70;;;;;;5030681;28;20526;-80
2022/12/15 20:38:25;;;;;;;21.00;11.88;;;18.90;49.60;;;;;;5031871;28;20440;-81
2022/12/15 20:40:51;;;;;;;19.17;11.23;;;18.90;49.60;;;;;;5031550;28;20036;-81
2022/12/15 20:43:24;;;;;;;19.38;11.90;;;18.90;49.60;;;;;;5030218;28;20026;-81
2022/12/15 20:45:59;;;;;;;16.98;10.75;;;18.90;49.60;;;;;;5030977;28;20038;-81
2022/12/15 20:48:25;;;;;;;18.15;11.23;;;18.90;49.60;;;;;;5030123;28;20033;-80
2022/12/15 20:50:52;;;;;;;19.23;11.32;;;18.90;49.60;;;;;;5032109;28;20075;-80
2022/12/15 20:53:20;;;;;;;23.33;11.18;;;18.90;49.60;;;;;;5009045;28;20522;-80
2022/12/15 20:55:47;;;;;;;17.50;10.35;;;18.90;49.50;;;;;;5023099;28;20056;-80
2022/12/15 20:58:14;;;;;;;18.17;10.90;;;18.90;49.50;;;;;;5028783;28;20025;-79
2022/12/15 21:00:40;;;;;;;17.23;10.75;;;18.90;49.50;;;;;;5014565;28;20030;-80
2022/12/15 21:03:24;;;;;;;16.13;10.57;;;18.90;49.50;;;;;;5029355;28;20036;-79
2022/12/15 21:05:53;;;;;;;16.88;10.63;;;18.90;49.50;;;;;;5032237;28;20048;-79
2022/12/15 21:08:28;;;;;;;16.92;10.15;;;18.90;49.50;;;;;;5013564;28;20060;-80
2022/12/15 21:10:58;;;;;;;15.90;10.38;;;18.90;49.80;;;;;;5030668;28;20036;-80
2022/12/15 21:13:27;;;;;;;17.30;10.98;;;18.90;49.40;;;;;;5030110;28;20072;-80
2022/12/15 21:15:53;;;;;;;16.48;10.57;;;18.90;49.40;;;;;;5029678;28;20029;-80
2022/12/15 21:18:20;;;;;;;19.58;11.10;;;18.90;49.30;;;;;;5030361;28;20388;-80
2022/12/15 21:20:51;;;;;;;17.10;9.90;;;18.90;49.20;;;;;;5029871;28;20030;-80
2022/12/15 21:23:27;;;;;;;15.95;10.15;;;18.90;49.20;;;;;;5025558;28;20473;-80
2022/12/15 21:25:54;;;;;;;17.15;10.45;;;18.90;49.80;;;;;;5029828;28;20033;-80
2022/12/15 21:28:20;;;;;;;15.95;9.85;;;19.00;49.30;;;;;;5027839;28;20025;-79
2022/12/15 21:30:47;;;;;;;16.20;10.23;;;19.00;49.20;;;;;;5030458;28;20115;-77
2022/12/15 21:33:14;;;;;;;22.25;9.85;;;19.00;49.30;;;;;;5012395;28;20040;-79
2022/12/15 21:35:41;;;;;;;17.27;9.57;;;19.00;50.90;;;;;;5012083;28;20025;-78
2022/12/15 21:38:22;;;;;;;17.48;8.55;;;19.00;51.80;;;;;;5034097;28;20029;-78
2022/12/15 21:40:48;;;;;;;19.67;9.00;;;19.00;51.80;;;;;;5029874;28;20021;-78
2022/12/15 21:43:14;;;;;;;15.07;9.05;;;19.10;52.50;;;;;;5029776;28;20033;-78
2022/12/15 21:45:39;;;;;;;16.52;8.73;;;19.00;52.70;;;;;;5012336;28;20034;-78
2022/12/15 21:50:51;;;;;;;18.42;9.68;;;19.00;52.40;;;;;;5030050;28;20036;-78
2022/12/15 21:53:17;;;;;;;16.38;9.20;;;19.00;52.30;;;;;;4985872;28;20482;-78
2022/12/15 21:55:45;;;;;;;16.58;9.35;;;19.00;52.50;;;;;;5030021;28;20037;-78
2022/12/15 21:58:17;;;;;;;15.48;8.65;;;19.00;52.30;;;;;;5028566;28;20393;-79
2022/12/15 22:00:43;;;;;;;20.00;8.60;;;19.00;52.60;;;;;;5031411;28;20036;-81
2022/12/15 22:03:09;;;;;;;23.17;8.68;;;19.00;52.40;;;;;;4997372;28;20444;-79
2022/12/15 22:05:35;;;;;;;16.48;8.45;;;19.00;53.30;;;;;;5030264;28;20069;-79
2022/12/15 22:08:15;;;;;;;16.73;8.48;;;19.00;52.80;;;;;;5028754;28;20096;-79
2022/12/15 22:10:42;;;;;;;19.40;9.10;;;19.00;53.00;;;;;;5006488;28;20538;-78
2022/12/15 22:13:21;;;;;;;15.73;8.38;;;19.00;53.40;;;;;;5026320;28;20397;-79
2022/12/15 22:15:49;;;;;;;16.63;8.27;;;19.00;53.40;;;;;;5021695;28;20036;-78
2022/12/15 22:18:22;;;;;;;14.68;8.20;;;19.00;52.80;;;;;;5028805;28;20033;-79
2022/12/15 22:20:49;;;;;;;19.25;8.95;;;19.00;52.80;;;;;;5013014;28;20044;-78
2022/12/15 22:23:17;;;;;;;17.52;8.88;;;19.00;52.90;;;;;;5028807;28;20389;-78
2022/12/15 22:25:43;;;;;;;17.08;8.95;;;19.00;53.60;;;;;;5029454;28;20044;-78
2022/12/15 22:28:21;;;;;;;15.25;8.82;;;19.00;53.30;;;;;;5034737;28;20025;-78
2022/12/15 22:30:49;;;;;;;17.58;8.00;;;19.00;53.40;;;;;;5038515;28;20108;-79
2022/12/15 22:33:23;;;;;;;16.52;8.15;;;19.00;53.50;;;;;;5018209;28;20033;-78
2022/12/15 22:35:51;;;;;;;17.98;8.88;;;19.00;53.50;;;;;;5033322;28;20056;-78
2022/12/15 22:38:17;;;;;;;17.50;8.85;;;19.10;53.50;;;;;;5027471;28;20494;-79
2022/12/15 22:40:46;;;;;;;16.35;8.80;;;19.00;53.60;;;;;;5013522;28;20022;-79
2022/12/15 22:43:23;;;;;;;17.10;8.23;;;19.00;54.00;;;;;;5014957;28;20029;-81
2022/12/15 22:45:52;;;;;;;16.70;8.48;;;19.00;53.40;;;;;;5016386;28;20037;-80
2022/12/15 22:48:20;;;;;;;17.50;8.43;;;19.10;53.70;;;;;;5029255;28;20026;-80
2022/12/15 22:50:46;;;;;;;16.30;7.82;;;19.10;53.90;;;;;;5036001;28;20033;-78
2022/12/15 22:53:17;;;;;;;16.85;8.10;;;19.10;53.60;;;;;;5041511;28;20025;-77
2022/12/15 22:55:45;;;;;;;15.30;7.80;;;19.00;53.50;;;;;;5029444;28;20029;-77
2022/12/15 22:58:16;;;;;;;21.00;8.35;;;19.10;53.50;;;;;;5032254;28;20052;-77
2022/12/15 23:00:43;;;;;;;20.08;8.30;;;19.00;53.20;;;;;;5032566;28;20109;-78
2022/12/15 23:03:10;;;;;;;15.15;8.32;;;19.10;53.30;;;;;;5032751;28;20577;-76
2022/12/15 23:05:39;;;;;;;28.42;8.93;;;19.00;53.30;;;;;;5031525;28;20032;-75
2022/12/15 23:08:05;;;;;;;20.20;8.15;;;19.00;53.20;;;;;;5028957;28;20028;-77
2022/12/15 23:13:15;;;;;;;23.20;8.15;;;19.10;53.40;;;;;;5028242;28;20025;-77
2022/12/15 23:18:25;;;;;;;20.27;7.93;;;19.10;53.10;;;;;;5026754;28;20032;-76
2022/12/15 23:20:51;;;;;;;20.83;8.60;;;19.10;53.30;;;;;;5033570;28;20022;-76
2022/12/15 23:23:17;;;;;;;28.50;7.90;;;19.10;53.30;;;;;;5032894;28;20029;-77
2022/12/15 23:25:43;;;;;;;17.40;8.43;;;19.10;53.80;;;;;;5032794;28;20058;-76
2022/12/15 23:28:08;;;;;;;19.90;8.90;;;19.10;53.40;;;;;;5030285;28;20056;-76
2022/12/15 23:30:34;;;;;;;18.00;8.23;;;19.10;53.60;;;;;;5031362;28;20477;-75
2022/12/15 23:33:00;;;;;;;24.45;8.63;;;19.10;53.50;;;;;;5028030;28;20029;-75
2022/12/15 23:35:26;;;;;;;31.42;8.50;;;19.10;53.50;;;;;;5030585;28;20034;-75
2022/12/15 23:37:52;;;;;;;20.85;8.50;;;19.20;54.00;;;;;;5030484;28;20530;-77
2022/12/15 23:40:20;;;;;;;32.15;8.93;;;19.20;53.70;;;;;;5029627;28;20093;-78
2022/12/15 23:42:50;;;;;;;30.10;22.65;;;19.20;54.80;;;;;;5032814;28;20068;-77
2022/12/15 23:45:17;;;;;;;37.35;28.98;;;18.80;41.40;;;;;;5046885;23;20048;-73
2022/12/15 23:47:42;;;;;;;33.00;24.73;;;18.50;41.40;;;;;;5033111;28;20034;-73
2022/12/15 23:50:09;;;;;;;30.55;20.42;;;18.50;42.50;;;;;;5029141;28;20507;-75
2022/12/15 23:52:35;;;;;;;27.48;18.55;;;18.50;45.50;;;;;;5031190;28;20033;-75
2022/12/15 23:55:01;;;;;;;27.02;17.23;;;18.60;48.00;;;;;;5031609;28;20104;-75
2022/12/15 23:57:27;;;;;;;31.73;17.08;;;18.70;48.30;;;;;;5030963;28;20104;-74
2022/12/15 23:59:53;;;;;;;28.05;16.50;;;18.80;48.10;;;;;;5030575;28;20465;-75
